New Horizon — WKWB — position and weather

sailwx.info

Track history (hours):
 
Tides and Currents Weather Stations Pressure Air Temp Water Temp Dewpoint Dewpoint Depression Visibility Wind Speed Wind Dir Waves Ship Positions

Oceanographic research ship New Horizon (USA)

Detailed information on ship capabilities available from University of Delaware's Ocean Information Center.

Owner: Bold Horizon, LLC., Annapolis, MD. More information available from US FCC via Universal Licensing System and Coast Guard Vessel Documentation Center.

Last reported at 2018-Jun-14 23:40 UTC. Time now 2018-Jun-24 18:53 UTC.
Position N 32°41' W 117°20'.
Warning: this ship's position is 9 days out of date.

Type: Other ship. MMSI: 303273000.

Date/timePositionNaut miles runAvg speedWind from/ knotsBaromVisibWave heightAir tempDewpointWater temp
2018-Jun-14 23:40N 32°41' W 117°20'1 7.7
2018-Jun-14 23:30N 32°41' W 117°21'4 8.0
2018-Jun-14 23:00N 32°43' W 117°25'1 1.5
2018-Jun-14 22:31N 32°43' W 117°26'0 0.3
2018-Jun-14 22:00N 32°43' W 117°26'0 0.0
2018-Jun-14 21:30N 32°43' W 117°26'0 0.0
2018-Jun-14 21:01N 32°43' W 117°26'0 0.0
2018-Jun-14 20:30N 32°43' W 117°26'0 0.1
2018-Jun-14 20:00N 32°43' W 117°26'2 4.7
2018-Jun-14 19:30N 32°45' W 117°29'4 8.4
2018-Jun-14 18:59N 32°47' W 117°33'4 8.3
2018-Jun-14 18:30N 32°49' W 117°37'4 8.4
2018-Jun-14 18:00N 32°51' W 117°42'1 2.8
2018-Jun-14 17:30N 32°51' W 117°43'0 0.4
2018-Jun-14 17:01N 32°51' W 117°43'2 3.4
2018-Jun-14 16:30N 32°52' W 117°45'4 8.1
2018-Jun-14 16:00N 32°55' W 117°48'3 6.2
2018-Jun-14 15:30N 32°57' W 117°51'0 0.7
2018-Jun-14 15:00N 32°57' W 117°51'0 0.1
2018-Jun-14 14:29N 32°57' W 117°51'0 0.4
2018-Jun-14 14:00N 32°57' W 117°51'0 0.1
2018-Jun-14 13:30N 32°57' W 117°51'0 0.3
2018-Jun-14 13:00N 32°57' W 117°51'0 0.6
2018-Jun-14 12:30N 32°57' W 117°51'0 0.3
2018-Jun-14 12:00N 32°57' W 117°51'0 0.3
2018-Jun-14 11:30N 32°57' W 117°51'0 0.2
2018-Jun-14 10:58N 32°57' W 117°51'1 1.5
2018-Jun-14 10:30N 32°57' W 117°52'1 1.6
2018-Jun-14 10:00N 32°57' W 117°53'1 1.4
2018-Jun-14 09:31N 32°58' W 117°54'0 0.6
2018-Jun-14 09:00N 32°58' W 117°54'1 1.5
2018-Jun-14 08:30N 32°58' W 117°55'0 0.7
2018-Jun-14 07:51N 32°59' W 117°55'1 1.5
2018-Jun-14 07:29N 32°58' W 117°55'0 0.3
2018-Jun-14 07:00N 32°58' W 117°55'1 2.9
2018-Jun-14 06:30N 32°59' W 117°55'1 2.4
2018-Jun-14 06:00N 32°59' W 117°54'1 2.9
2018-Jun-14 05:30N 32°58' W 117°52'1 3.0
2018-Jun-14 05:00N 32°57' W 117°51'2 3.1
2018-Jun-14 04:30N 32°56' W 117°50'2 3.2
2018-Jun-14 04:00N 32°55' W 117°48'2 3.0
2018-Jun-14 03:30N 32°54' W 117°47'2 3.1
2018-Jun-14 03:00N 32°53' W 117°46'2 3.2
2018-Jun-14 02:31N 32°52' W 117°44'1 2.9
2018-Jun-14 02:00N 32°51' W 117°43'1 2.5
2018-Jun-14 01:30N 32°51' W 117°44'0 1.0
2018-Jun-14 01:01N 32°52' W 117°44'2 3.0
2018-Jun-14 00:30N 32°51' W 117°43'1 1.3
2018-Jun-14 00:00N 32°51' W 117°44'2 3.1
2018-Jun-13 23:30N 32°52' W 117°45'2 3.3
2018-Jun-13 23:00N 32°53' W 117°46'2 3.5
2018-Jun-13 22:31N 32°55' W 117°48'2 3.3
2018-Jun-13 22:00N 32°56' W 117°49'2 3.2
2018-Jun-13 21:31N 32°57' W 117°51'2 3.1
2018-Jun-13 21:00N 32°58' W 117°52'2 3.1
2018-Jun-13 20:30N 32°59' W 117°53'1 2.7
2018-Jun-13 20:00N 33°00' W 117°54'0 0.6
2018-Jun-13 19:30N 32°60' W 117°54'0 0.4
2018-Jun-13 19:00N 32°60' W 117°54'0 0.5
2018-Jun-13 18:31N 33°00' W 117°54'0 0.3
2018-Jun-13 18:00N 33°00' W 117°55'1 2.4
2018-Jun-13 17:30N 32°59' W 117°54'2 4.0
2018-Jun-13 17:00N 32°58' W 117°52'1 2.2
2018-Jun-13 16:29N 32°57' W 117°51'0 0.3
2018-Jun-13 16:00N 32°57' W 117°51'0 0.0
2018-Jun-13 15:31N 32°57' W 117°51'0 0.0
2018-Jun-13 14:56N 32°57' W 117°51'2 3.5
2018-Jun-13 14:27N 32°56' W 117°50'2 3.9
2018-Jun-13 13:59N 32°55' W 117°48'5 3.8
2018-Jun-13 12:42N 32°51' W 117°44'0 0.3
2018-Jun-13 12:30N 32°51' W 117°44'0 0.4
2018-Jun-13 11:56N 32°51' W 117°44'0 0.8
2018-Jun-13 11:30N 32°51' W 117°43'1 1.9
2018-Jun-13 11:00N 32°51' W 117°42'1 1.8
2018-Jun-13 10:30N 32°51' W 117°43'1 1.8
2018-Jun-13 10:01N 32°51' W 117°44'1 1.7
2018-Jun-13 09:31N 32°51' W 117°45'0 0.4
2018-Jun-13 08:58N 32°52' W 117°45'0 0.7
2018-Jun-13 08:31N 32°52' W 117°45'0 0.4
2018-Jun-13 07:52N 32°52' W 117°45'0 0.3
2018-Jun-13 07:20N 32°52' W 117°45'0 0.3
2018-Jun-13 07:00N 32°52' W 117°45'0 0.3
2018-Jun-13 06:28N 32°52' W 117°45'0 0.3
2018-Jun-13 05:47N 32°53' W 117°45'0 0.3
2018-Jun-13 05:30N 32°53' W 117°45'0 0.1
2018-Jun-13 04:52N 32°53' W 117°45'0 0.1
2018-Jun-13 04:31N 32°53' W 117°45'0 0.2
2018-Jun-13 02:45N 32°53' W 117°46'0 0.2
2018-Jun-13 02:30N 32°53' W 117°46'0 0.3
2018-Jun-13 01:14N 32°53' W 117°46'0 0.2
2018-Jun-13 00:53N 32°53' W 117°46'0 0.2
2018-Jun-13 00:30N 32°53' W 117°46'0 0.1
2018-Jun-13 00:00N 32°53' W 117°46'0 0.1
2018-Jun-12 23:30N 32°53' W 117°46'0 0.0
2018-Jun-12 20:48N 32°53' W 117°46'0 0.2
2018-Jun-12 20:25N 32°53' W 117°46'1 2.9
2018-Jun-12 20:00N 32°53' W 117°45'1 1.7
2018-Jun-12 19:19N 32°53' W 117°46'0 0.0
2018-Jun-12 19:00N 32°53' W 117°46'0 0.2
2018-Jun-12 18:22N 32°53' W 117°46'4 8.2
2018-Jun-12 17:50N 32°50' W 117°42'2 5.1
2018-Jun-12 17:26N 32°49' W 117°40'3 5.7
2018-Jun-12 17:00N 32°48' W 117°37'4 8.5
2018-Jun-12 16:30N 32°46' W 117°33'4 8.0
2018-Jun-12 16:01N 32°44' W 117°29'4 8.5
2018-Jun-12 15:31N 32°43' W 117°24'13 0.9
2018-Jun-12 00:55N 32°42' W 117°09'  
Track history (hours):
 
Tides and Currents Weather Stations Pressure Air Temp Water Temp Dewpoint Dewpoint Depression Visibility Wind Speed Wind Dir Waves Ship Positions

Oceanographic research ship New Horizon (USA)

Detailed information on ship capabilities available from University of Delaware's Ocean Information Center.

Owner: Bold Horizon, LLC., Annapolis, MD. More information available from US FCC via Universal Licensing System and Coast Guard Vessel Documentation Center.

Last reported at 2018-Jun-14 23:40 UTC. Time now 2018-Jun-24 18:53 UTC.
Position N 32°41' W 117°20'.
Warning: this ship's position is 9 days out of date.

Type: Other ship. MMSI: 303273000.

Date/timePositionNaut miles runAvg speedWind from/ knotsBaromVisibWave heightAir tempDewpointWater temp
2018-Jun-14 23:40N 32°41' W 117°20'1 7.7
2018-Jun-14 23:30N 32°41' W 117°21'4 8.0
2018-Jun-14 23:00N 32°43' W 117°25'1 1.5
2018-Jun-14 22:31N 32°43' W 117°26'0 0.3
2018-Jun-14 22:00N 32°43' W 117°26'0 0.0
2018-Jun-14 21:30N 32°43' W 117°26'0 0.0
2018-Jun-14 21:01N 32°43' W 117°26'0 0.0
2018-Jun-14 20:30N 32°43' W 117°26'0 0.1
2018-Jun-14 20:00N 32°43' W 117°26'2 4.7
2018-Jun-14 19:30N 32°45' W 117°29'4 8.4
2018-Jun-14 18:59N 32°47' W 117°33'4 8.3
2018-Jun-14 18:30N 32°49' W 117°37'4 8.4
2018-Jun-14 18:00N 32°51' W 117°42'1 2.8
2018-Jun-14 17:30N 32°51' W 117°43'0 0.4
2018-Jun-14 17:01N 32°51' W 117°43'2 3.4
2018-Jun-14 16:30N 32°52' W 117°45'4 8.1
2018-Jun-14 16:00N 32°55' W 117°48'3 6.2
2018-Jun-14 15:30N 32°57' W 117°51'0 0.7
2018-Jun-14 15:00N 32°57' W 117°51'0 0.1
2018-Jun-14 14:29N 32°57' W 117°51'0 0.4
2018-Jun-14 14:00N 32°57' W 117°51'0 0.1
2018-Jun-14 13:30N 32°57' W 117°51'0 0.3
2018-Jun-14 13:00N 32°57' W 117°51'0 0.6
2018-Jun-14 12:30N 32°57' W 117°51'0 0.3
2018-Jun-14 12:00N 32°57' W 117°51'0 0.3
2018-Jun-14 11:30N 32°57' W 117°51'0 0.2
2018-Jun-14 10:58N 32°57' W 117°51'1 1.5
2018-Jun-14 10:30N 32°57' W 117°52'1 1.6
2018-Jun-14 10:00N 32°57' W 117°53'1 1.4
2018-Jun-14 09:31N 32°58' W 117°54'0 0.6
2018-Jun-14 09:00N 32°58' W 117°54'1 1.5
2018-Jun-14 08:30N 32°58' W 117°55'0 0.7
2018-Jun-14 07:51N 32°59' W 117°55'1 1.5
2018-Jun-14 07:29N 32°58' W 117°55'0 0.3
2018-Jun-14 07:00N 32°58' W 117°55'1 2.9
2018-Jun-14 06:30N 32°59' W 117°55'1 2.4
2018-Jun-14 06:00N 32°59' W 117°54'1 2.9
2018-Jun-14 05:30N 32°58' W 117°52'1 3.0
2018-Jun-14 05:00N 32°57' W 117°51'2 3.1
2018-Jun-14 04:30N 32°56' W 117°50'2 3.2
2018-Jun-14 04:00N 32°55' W 117°48'2 3.0
2018-Jun-14 03:30N 32°54' W 117°47'2 3.1
2018-Jun-14 03:00N 32°53' W 117°46'2 3.2
2018-Jun-14 02:31N 32°52' W 117°44'1 2.9
2018-Jun-14 02:00N 32°51' W 117°43'1 2.5
2018-Jun-14 01:30N 32°51' W 117°44'0 1.0
2018-Jun-14 01:01N 32°52' W 117°44'2 3.0
2018-Jun-14 00:30N 32°51' W 117°43'1 1.3
2018-Jun-14 00:00N 32°51' W 117°44'2 3.1
2018-Jun-13 23:30N 32°52' W 117°45'2 3.3
2018-Jun-13 23:00N 32°53' W 117°46'2 3.5
2018-Jun-13 22:31N 32°55' W 117°48'2 3.3
2018-Jun-13 22:00N 32°56' W 117°49'2 3.2
2018-Jun-13 21:31N 32°57' W 117°51'2 3.1
2018-Jun-13 21:00N 32°58' W 117°52'2 3.1
2018-Jun-13 20:30N 32°59' W 117°53'1 2.7
2018-Jun-13 20:00N 33°00' W 117°54'0 0.6
2018-Jun-13 19:30N 32°60' W 117°54'0 0.4
2018-Jun-13 19:00N 32°60' W 117°54'0 0.5
2018-Jun-13 18:31N 33°00' W 117°54'0 0.3
2018-Jun-13 18:00N 33°00' W 117°55'1 2.4
2018-Jun-13 17:30N 32°59' W 117°54'2 4.0
2018-Jun-13 17:00N 32°58' W 117°52'1 2.2
2018-Jun-13 16:29N 32°57' W 117°51'0 0.3
2018-Jun-13 16:00N 32°57' W 117°51'0 0.0
2018-Jun-13 15:31N 32°57' W 117°51'0 0.0
2018-Jun-13 14:56N 32°57' W 117°51'2 3.5
2018-Jun-13 14:27N 32°56' W 117°50'2 3.9
2018-Jun-13 13:59N 32°55' W 117°48'5 3.8
2018-Jun-13 12:42N 32°51' W 117°44'0 0.3
2018-Jun-13 12:30N 32°51' W 117°44'0 0.4
2018-Jun-13 11:56N 32°51' W 117°44'0 0.8
2018-Jun-13 11:30N 32°51' W 117°43'1 1.9
2018-Jun-13 11:00N 32°51' W 117°42'1 1.8
2018-Jun-13 10:30N 32°51' W 117°43'1 1.8
2018-Jun-13 10:01N 32°51' W 117°44'1 1.7
2018-Jun-13 09:31N 32°51' W 117°45'0 0.4
2018-Jun-13 08:58N 32°52' W 117°45'0 0.7
2018-Jun-13 08:31N 32°52' W 117°45'0 0.4
2018-Jun-13 07:52N 32°52' W 117°45'0 0.3
2018-Jun-13 07:20N 32°52' W 117°45'0 0.3
2018-Jun-13 07:00N 32°52' W 117°45'0 0.3
2018-Jun-13 06:28N 32°52' W 117°45'0 0.3
2018-Jun-13 05:47N 32°53' W 117°45'0 0.3
2018-Jun-13 05:30N 32°53' W 117°45'0 0.1
2018-Jun-13 04:52N 32°53' W 117°45'0 0.1
2018-Jun-13 04:31N 32°53' W 117°45'0 0.2
2018-Jun-13 02:45N 32°53' W 117°46'0 0.2
2018-Jun-13 02:30N 32°53' W 117°46'0 0.3
2018-Jun-13 01:14N 32°53' W 117°46'0 0.2
2018-Jun-13 00:53N 32°53' W 117°46'0 0.2
2018-Jun-13 00:30N 32°53' W 117°46'0 0.1
2018-Jun-13 00:00N 32°53' W 117°46'0 0.1
2018-Jun-12 23:30N 32°53' W 117°46'0 0.0
2018-Jun-12 20:48N 32°53' W 117°46'0 0.2
2018-Jun-12 20:25N 32°53' W 117°46'1 2.9
2018-Jun-12 20:00N 32°53' W 117°45'1 1.7
2018-Jun-12 19:19N 32°53' W 117°46'0 0.0
2018-Jun-12 19:00N 32°53' W 117°46'0 0.2
2018-Jun-12 18:22N 32°53' W 117°46'4 8.2
2018-Jun-12 17:50N 32°50' W 117°42'2 5.1
2018-Jun-12 17:26N 32°49' W 117°40'3 5.7
2018-Jun-12 17:00N 32°48' W 117°37'4 8.5
2018-Jun-12 16:30N 32°46' W 117°33'4 8.0
2018-Jun-12 16:01N 32°44' W 117°29'4 8.5
2018-Jun-12 15:31N 32°43' W 117°24'13 0.9
2018-Jun-12 00:55N 32°42' W 117°09'  

Dump ship's entire track history